createdAt,value
2023-03-04T00:00:54.721Z,67.41
2023-03-04T00:03:23.193Z,67.30
2023-03-04T00:05:50.284Z,67.02
2023-03-04T00:08:17.767Z,67.17
2023-03-04T00:10:44.827Z,67.43
2023-03-04T00:13:12.936Z,67.34
2023-03-04T00:15:40.390Z,67.25
2023-03-04T00:18:10.622Z,67.82
2023-03-04T00:20:37.858Z,67.40
2023-03-04T00:23:05.213Z,67.27
2023-03-04T00:25:32.320Z,67.59
2023-03-04T00:28:00.426Z,68.27
2023-03-04T00:30:28.645Z,67.89
2023-03-04T00:32:56.287Z,67.41
2023-03-04T00:35:24.603Z,67.95
2023-03-04T00:37:52.193Z,67.65
2023-03-04T00:40:19.850Z,67.69
2023-03-04T00:42:47.197Z,68.02
2023-03-04T00:45:14.130Z,68.30
2023-03-04T00:47:43.186Z,68.94
2023-03-04T00:50:11.151Z,68.93
2023-03-04T00:52:38.603Z,69.18
2023-03-04T00:55:06.427Z,69.57
2023-03-04T00:57:33.878Z,70.07
2023-03-04T01:00:01.621Z,70.37
2023-03-04T01:02:29.179Z,70.68
2023-03-04T01:04:56.506Z,70.84
2023-03-04T01:07:24.110Z,71.09
2023-03-04T01:09:52.975Z,71.21
2023-03-04T01:12:20.244Z,71.76
2023-03-04T01:14:47.258Z,71.77
2023-03-04T01:17:14.633Z,71.95
2023-03-04T01:19:41.681Z,71.78
2023-03-04T01:22:10.876Z,72.13
2023-03-04T01:24:38.588Z,71.55
2023-03-04T01:27:06.133Z,71.76
2023-03-04T01:29:33.165Z,71.96
2023-03-04T01:32:00.893Z,71.89
2023-03-04T01:34:28.062Z,71.89
2023-03-04T01:36:55.570Z,72.03
2023-03-04T01:39:23.200Z,72.20
2023-03-04T01:41:50.664Z,72.56
2023-03-04T01:44:17.761Z,72.53
2023-03-04T01:46:52.597Z,71.98
2023-03-04T01:49:20.218Z,72.13
2023-03-04T01:51:54.770Z,73.29
2023-03-04T01:54:22.870Z,72.87
2023-03-04T01:56:52.279Z,72.45
2023-03-04T01:59:25.461Z,72.59
2023-03-04T02:01:55.752Z,72.64
2023-03-04T02:04:26.361Z,73.31
2023-03-04T02:06:54.245Z,73.36
2023-03-04T02:09:21.392Z,73.46
2023-03-04T02:11:50.227Z,73.71
2023-03-04T02:14:18.418Z,73.74
2023-03-04T02:16:46.491Z,73.71
2023-03-04T02:19:53.978Z,73.60
2023-03-04T02:22:21.254Z,73.95
2023-03-04T02:24:54.902Z,73.73
2023-03-04T02:27:22.532Z,73.97
2023-03-04T02:29:52.294Z,73.71
2023-03-04T02:32:20.063Z,74.17
2023-03-04T02:34:50.046Z,74.25
2023-03-04T02:37:19.752Z,74.68
2023-03-04T02:39:48.259Z,74.98
2023-03-04T02:42:16.461Z,74.70
2023-03-04T02:44:47.805Z,74.98
2023-03-04T02:47:18.396Z,75.13
2023-03-04T02:49:46.629Z,75.45
2023-03-04T02:52:22.584Z,75.88
2023-03-04T02:54:49.949Z,76.70
2023-03-04T02:57:16.948Z,77.66
2023-03-04T02:59:44.506Z,77.65
2023-03-04T03:02:11.697Z,77.92
2023-03-04T03:04:40.972Z,77.48
2023-03-04T03:07:11.188Z,77.61
2023-03-04T03:09:38.615Z,77.30
2023-03-04T03:12:05.874Z,77.51
2023-03-04T03:14:33.817Z,76.87
2023-03-04T03:17:00.831Z,77.17
2023-03-04T03:19:29.527Z,76.81
2023-03-04T03:21:56.580Z,76.99
2023-03-04T03:24:23.890Z,76.96
2023-03-04T03:26:50.946Z,77.04
2023-03-04T03:29:29.913Z,77.03
2023-03-04T03:31:57.262Z,77.45
2023-03-04T03:34:24.799Z,77.67
2023-03-04T03:36:51.825Z,77.79
2023-03-04T03:39:20.281Z,77.64
2023-03-04T03:41:47.276Z,77.72
2023-03-04T03:44:15.869Z,77.58
2023-03-04T03:46:43.475Z,77.49
2023-03-04T03:49:10.912Z,77.71
2023-03-04T03:51:38.393Z,77.82
2023-03-04T03:54:05.773Z,78.07
2023-03-04T03:56:32.738Z,77.82
2023-03-04T03:59:00.287Z,77.60
2023-03-04T04:01:27.533Z,77.87
2023-03-04T04:03:54.950Z,77.75
2023-03-04T04:06:23.591Z,77.97
2023-03-04T04:08:50.970Z,77.98
2023-03-04T04:11:21.103Z,78.33
2023-03-04T04:13:48.444Z,78.16
2023-03-04T04:16:15.493Z,77.98
2023-03-04T04:18:46.075Z,78.04
2023-03-04T04:21:14.946Z,77.66
2023-03-04T04:23:42.285Z,78.03
2023-03-04T04:26:10.554Z,78.04
2023-03-04T04:28:38.024Z,77.99
2023-03-04T04:31:08.975Z,78.09
2023-03-04T04:33:36.915Z,78.22
2023-03-04T04:36:05.736Z,78.33
2023-03-04T04:38:33.145Z,77.99
2023-03-04T04:41:02.345Z,78.15
2023-03-04T04:43:29.602Z,78.12
2023-03-04T04:45:59.216Z,77.96
2023-03-04T04:48:26.647Z,78.07
2023-03-04T04:50:57.776Z,78.07
2023-03-04T04:53:26.885Z,78.03
2023-03-04T04:55:59.369Z,78.13
2023-03-04T04:58:27.802Z,77.72
2023-03-04T05:00:57.998Z,77.31
2023-03-04T05:03:25.572Z,77.17
2023-03-04T05:05:54.921Z,76.89
2023-03-04T05:08:22.799Z,76.70
2023-03-04T05:10:49.796Z,76.71
2023-03-04T05:13:17.440Z,76.23
2023-03-04T05:15:44.871Z,76.30
2023-03-04T05:18:12.775Z,76.49
2023-03-04T05:20:40.279Z,76.22
2023-03-04T05:23:07.635Z,76.14
2023-03-04T05:25:34.660Z,75.95
2023-03-04T05:28:07.397Z,76.08
2023-03-04T05:36:00.016Z,75.48
2023-03-04T05:38:27.739Z,75.54
2023-03-04T05:41:00.881Z,74.97
2023-03-04T05:43:29.463Z,74.51
2023-03-04T05:45:56.922Z,74.34
2023-03-04T05:48:24.273Z,74.03
2023-03-04T05:51:03.029Z,73.79
2023-03-04T05:53:34.390Z,73.55
2023-03-04T05:56:08.569Z,73.24
2023-03-04T05:58:41.124Z,73.54
2023-03-04T06:01:08.500Z,73.26
2023-03-04T06:03:36.238Z,72.79
2023-03-04T06:06:03.855Z,72.41
2023-03-04T06:08:31.377Z,72.33
2023-03-04T06:11:02.030Z,72.00
2023-03-04T06:13:29.448Z,72.10
2023-03-04T06:15:58.529Z,71.51
2023-03-04T06:18:27.687Z,71.31
2023-03-04T06:20:59.970Z,71.19
2023-03-04T06:23:28.082Z,71.02
2023-03-04T06:25:58.272Z,71.02
2023-03-04T06:28:30.185Z,71.31
2023-03-04T06:30:58.209Z,71.43
2023-03-04T06:33:26.423Z,71.37
2023-03-04T06:35:57.735Z,71.14
2023-03-04T06:38:26.453Z,70.93
2023-03-04T06:40:56.075Z,71.23
2023-03-04T06:43:24.561Z,70.71
2023-03-04T06:45:51.897Z,70.22
2023-03-04T06:48:19.206Z,69.80
2023-03-04T06:50:46.211Z,69.91
2023-03-04T06:53:13.867Z,69.45
2023-03-04T06:55:40.939Z,69.60
2023-03-04T06:58:08.426Z,69.10
2023-03-04T07:00:35.619Z,69.32
2023-03-04T07:03:03.706Z,69.10
2023-03-04T07:05:32.144Z,68.50
2023-03-04T07:07:59.612Z,67.96
2023-03-04T07:10:26.870Z,68.16
2023-03-04T07:12:55.557Z,68.12
2023-03-04T07:15:22.682Z,67.93
2023-03-04T07:17:50.002Z,67.31
2023-03-04T07:20:17.129Z,66.58
2023-03-04T07:22:44.657Z,65.92
2023-03-04T07:25:11.928Z,65.73
2023-03-04T07:27:40.927Z,65.15
2023-03-04T07:30:09.448Z,65.10
2023-03-04T07:32:36.874Z,64.29
2023-03-04T07:35:04.364Z,63.60
2023-03-04T07:37:31.892Z,63.40
2023-03-04T07:40:03.273Z,63.23
2023-03-04T07:42:31.571Z,63.91
2023-03-04T07:44:59.787Z,63.28
2023-03-04T07:47:27.558Z,62.65
2023-03-04T07:49:54.786Z,61.62
2023-03-04T07:52:22.322Z,61.20
2023-03-04T07:54:49.435Z,61.29
2023-03-04T07:57:16.822Z,61.62
2023-03-04T07:59:43.878Z,61.04
2023-03-04T08:02:11.349Z,60.86
2023-03-04T08:04:38.720Z,60.52
2023-03-04T08:07:06.237Z,60.32
2023-03-04T08:09:34.153Z,60.42
2023-03-04T08:12:01.760Z,60.06
2023-03-04T08:14:28.808Z,60.10
2023-03-04T08:16:56.177Z,59.41
2023-03-04T08:19:26.093Z,59.26
2023-03-04T08:21:55.807Z,59.29
2023-03-04T08:24:22.801Z,58.98
2023-03-04T08:26:50.782Z,58.47
2023-03-04T08:29:21.623Z,58.68
2023-03-04T08:31:51.178Z,58.10
2023-03-04T08:34:19.951Z,57.81
2023-03-04T08:36:47.522Z,57.57
2023-03-04T08:39:16.423Z,57.38
2023-03-04T08:41:44.178Z,57.07
2023-03-04T08:44:11.614Z,56.35
2023-03-04T08:46:43.106Z,56.47
2023-03-04T08:49:14.677Z,56.09
2023-03-04T08:51:54.602Z,53.83
2023-03-04T08:54:21.611Z,52.52
2023-03-04T08:56:51.702Z,50.47
2023-03-04T08:59:23.761Z,45.81
2023-03-04T09:01:51.473Z,43.96
2023-03-04T09:04:18.680Z,41.37
2023-03-04T09:06:47.291Z,40.00
2023-03-04T09:09:14.909Z,38.85
2023-03-04T09:11:42.481Z,37.44
2023-03-04T09:14:09.897Z,35.47
2023-03-04T09:16:41.660Z,34.24
2023-03-04T09:19:08.802Z,33.35
2023-03-04T09:21:36.680Z,33.02
2023-03-04T09:24:04.273Z,32.44
2023-03-04T09:26:31.854Z,31.95
2023-03-04T09:29:04.650Z,31.93
2023-03-04T09:31:33.331Z,32.00
2023-03-04T09:34:00.775Z,32.43
2023-03-04T09:36:30.940Z,31.61
2023-03-04T09:39:05.425Z,32.06
2023-03-04T09:41:36.589Z,32.23
2023-03-04T09:44:15.421Z,31.39
2023-03-04T09:46:45.618Z,30.00
2023-03-04T09:49:14.096Z,28.76
2023-03-04T09:51:50.681Z,28.42
2023-03-04T09:54:36.929Z,26.81
2023-03-04T09:57:45.824Z,27.89
2023-03-04T10:00:25.302Z,28.06
2023-03-04T10:03:20.728Z,26.54
2023-03-04T10:05:59.534Z,25.98
2023-03-04T10:08:58.050Z,26.62
2023-03-04T10:11:44.808Z,26.66
2023-03-04T10:14:28.106Z,26.12
2023-03-04T10:17:21.516Z,26.10
2023-03-04T10:20:01.776Z,25.96
2023-03-04T10:23:12.115Z,25.36
2023-03-04T10:25:54.526Z,26.26
2023-03-04T10:28:29.353Z,26.13
2023-03-04T10:31:10.297Z,25.66
2023-03-04T10:33:39.801Z,26.61
2023-03-04T10:36:28.543Z,27.46
2023-03-04T10:39:08.245Z,27.46
2023-03-04T10:41:35.792Z,27.17
2023-03-04T10:44:09.384Z,28.38
2023-03-04T10:46:40.875Z,29.48
2023-03-04T10:49:10.775Z,30.29
2023-03-04T10:51:52.006Z,29.40
2023-03-04T10:54:36.927Z,29.68
2023-03-04T10:57:18.409Z,29.18
2023-03-04T10:59:56.158Z,29.17
2023-03-04T11:02:27.707Z,28.01
2023-03-04T11:04:56.868Z,27.88
2023-03-04T11:07:26.412Z,26.64
2023-03-04T11:09:55.384Z,25.90
2023-03-04T11:12:34.487Z,25.20
2023-03-04T11:15:03.119Z,26.30
2023-03-04T11:17:47.382Z,27.70
2023-03-04T11:20:29.077Z,29.23
2023-03-04T11:22:59.902Z,29.26
2023-03-04T11:25:35.155Z,28.98
2023-03-04T11:28:21.244Z,28.19
2023-03-04T11:31:16.839Z,27.37
2023-03-04T11:33:49.951Z,27.22
2023-03-04T11:36:34.329Z,27.80
2023-03-04T11:39:06.028Z,27.94
2023-03-04T11:41:45.568Z,28.36
2023-03-04T11:44:14.605Z,27.89
2023-03-04T11:47:01.691Z,28.18
2023-03-04T11:49:31.461Z,27.94
2023-03-04T11:52:20.713Z,28.42
2023-03-04T11:55:14.976Z,30.09
2023-03-04T11:57:45.246Z,31.66
2023-03-04T12:00:40.445Z,30.47
2023-03-04T12:03:23.152Z,29.86
2023-03-04T12:05:52.804Z,28.96
2023-03-04T12:08:44.625Z,28.65
2023-03-04T12:11:29.867Z,27.99
2023-03-04T12:13:57.465Z,28.05
2023-03-04T12:16:30.549Z,26.44
2023-03-04T12:19:16.326Z,27.58
2023-03-04T12:22:04.009Z,28.20
2023-03-04T12:24:50.009Z,26.50
2023-03-04T12:27:34.718Z,25.75
2023-03-04T12:30:26.551Z,25.98
2023-03-04T12:32:59.405Z,27.60
2023-03-04T12:38:50.540Z,27.84
2023-03-04T12:41:39.932Z,27.72
2023-03-04T12:44:19.473Z,27.26
2023-03-04T12:47:07.168Z,25.99
2023-03-04T12:49:46.397Z,25.92
2023-03-04T12:52:37.405Z,25.10
2023-03-04T12:55:19.028Z,25.09
2023-03-04T12:57:54.915Z,25.81
2023-03-04T13:00:43.943Z,26.18
2023-03-04T13:09:35.420Z,27.65
2023-03-04T13:12:23.549Z,27.27
2023-03-04T13:15:09.647Z,27.58
2023-03-04T13:17:46.136Z,27.67
2023-03-04T13:20:42.181Z,28.17
2023-03-04T13:23:09.165Z,28.01
2023-03-04T13:25:45.393Z,28.82
2023-03-04T13:28:20.048Z,30.30
2023-03-04T13:30:57.074Z,31.23
2023-03-04T13:33:24.133Z,31.58
2023-03-04T13:36:05.362Z,30.62
2023-03-04T13:38:38.727Z,28.35
2023-03-04T13:41:31.364Z,29.22
2023-03-04T13:44:07.684Z,28.27
2023-03-04T13:46:43.166Z,29.70
2023-03-04T13:49:20.064Z,30.23
2023-03-04T13:51:49.072Z,30.63
2023-03-04T13:54:29.913Z,30.50
2023-03-04T13:57:00.277Z,29.86
2023-03-04T13:59:30.334Z,29.66
2023-03-04T14:02:01.465Z,29.61
2023-03-04T14:04:34.031Z,29.40
2023-03-04T14:07:23.563Z,29.76
2023-03-04T14:10:15.039Z,30.14
2023-03-04T14:12:50.194Z,30.21
2023-03-04T14:15:24.262Z,29.89
2023-03-04T14:17:54.791Z,30.20
2023-03-04T14:20:35.482Z,30.38
2023-03-04T14:23:05.767Z,30.44
2023-03-04T14:25:36.813Z,31.28
2023-03-04T14:28:19.584Z,31.49
2023-03-04T14:30:54.552Z,31.71
2023-03-04T14:33:30.524Z,31.34
2023-03-04T14:36:03.147Z,31.63
2023-03-04T14:38:34.793Z,31.61
2023-03-04T14:41:15.799Z,32.02
2023-03-04T14:44:02.009Z,31.76
2023-03-04T14:46:40.996Z,31.58
2023-03-04T14:49:13.622Z,32.00
2023-03-04T14:51:52.994Z,32.23
2023-03-04T14:55:01.115Z,32.50
2023-03-04T14:57:34.717Z,32.52
2023-03-04T15:00:26.198Z,32.79
2023-03-04T15:02:56.633Z,33.05
2023-03-04T15:05:26.518Z,33.16
2023-03-04T15:08:00.585Z,33.39
2023-03-04T15:10:36.242Z,33.43
2023-03-04T15:13:07.318Z,33.29
2023-03-04T15:15:43.375Z,33.42
2023-03-04T15:18:27.818Z,33.66
2023-03-04T15:21:06.936Z,33.78
2023-03-04T15:23:34.181Z,34.33
2023-03-04T15:26:04.379Z,33.67
2023-03-04T15:28:36.086Z,33.99
2023-03-04T15:31:07.384Z,33.91
2023-03-04T15:33:34.487Z,34.36
2023-03-04T15:36:03.796Z,34.71
2023-03-04T15:38:30.944Z,34.34
2023-03-04T15:40:59.750Z,34.76
2023-03-04T15:43:27.220Z,34.58
2023-03-04T15:45:55.056Z,35.06
2023-03-04T15:48:22.388Z,34.90
2023-03-04T15:50:55.502Z,35.05
2023-03-04T15:53:36.129Z,34.96
2023-03-04T15:56:06.104Z,35.50
2023-03-04T15:58:35.028Z,35.24
2023-03-04T16:01:03.568Z,35.39
2023-03-04T16:03:30.715Z,35.71
2023-03-04T16:05:59.484Z,36.06
2023-03-04T16:08:28.660Z,35.27
2023-03-04T16:10:56.388Z,35.63
2023-03-04T16:13:24.378Z,35.42
2023-03-04T16:15:52.552Z,36.05
2023-03-04T16:18:20.826Z,36.21
2023-03-04T16:20:49.873Z,36.40
2023-03-04T16:23:24.933Z,36.72
2023-03-04T16:25:56.534Z,36.90
2023-03-04T16:28:23.766Z,36.98
2023-03-04T16:30:52.000Z,37.51
2023-03-04T16:33:21.705Z,38.20
2023-03-04T16:35:49.561Z,38.38
2023-03-04T16:38:28.308Z,38.45
2023-03-04T16:40:56.613Z,39.03
2023-03-04T16:43:25.573Z,39.60
2023-03-04T16:45:52.984Z,39.84
2023-03-04T16:48:20.460Z,40.23
2023-03-04T16:50:48.233Z,40.27
2023-03-04T16:53:41.036Z,41.25
2023-03-04T16:56:17.274Z,41.35
2023-03-04T16:58:45.844Z,41.50
2023-03-04T17:01:18.916Z,42.03
2023-03-04T17:03:46.283Z,42.51
2023-03-04T17:06:15.559Z,42.60
2023-03-04T17:08:43.137Z,42.94
2023-03-04T17:11:21.430Z,42.85
2023-03-04T17:13:48.912Z,43.22
2023-03-04T17:16:16.589Z,43.82
2023-03-04T17:18:44.825Z,43.99
2023-03-04T17:21:21.091Z,44.23
2023-03-04T17:23:48.802Z,44.64
2023-03-04T17:26:20.872Z,45.02
2023-03-04T17:28:50.743Z,45.08
2023-03-04T17:31:21.079Z,45.33
2023-03-04T17:33:49.169Z,45.48
2023-03-04T17:36:19.025Z,45.68
2023-03-04T17:38:46.883Z,46.03
2023-03-04T17:41:18.945Z,46.31
2023-03-04T17:43:51.165Z,46.57
2023-03-04T17:46:20.754Z,46.76
2023-03-04T17:48:48.094Z,47.00
2023-03-04T17:51:15.872Z,47.44
2023-03-04T17:53:43.295Z,47.28
2023-03-04T17:56:12.668Z,47.46
2023-03-04T17:59:46.115Z,47.33
2023-03-04T18:02:36.734Z,48.12
2023-03-04T18:05:06.932Z,48.55
2023-03-04T18:07:39.135Z,48.57
2023-03-04T18:10:07.479Z,48.52
2023-03-04T18:12:34.579Z,48.70
2023-03-04T18:15:02.174Z,49.34
2023-03-04T18:17:29.415Z,49.87
2023-03-04T18:19:57.346Z,50.22
2023-03-04T18:22:24.511Z,50.42
2023-03-04T18:24:51.933Z,50.96
2023-03-04T18:27:24.774Z,51.24
2023-03-04T18:29:53.131Z,51.41
2023-03-04T18:32:21.231Z,51.58
2023-03-04T18:34:49.008Z,52.01
2023-03-04T18:37:16.217Z,52.22
2023-03-04T18:39:43.518Z,52.25
2023-03-04T18:42:10.700Z,52.40
2023-03-04T18:44:38.388Z,52.54
2023-03-04T18:47:06.992Z,52.52
2023-03-04T18:49:40.209Z,52.53
2023-03-04T18:52:09.900Z,52.64
2023-03-04T18:54:37.408Z,53.34
2023-03-04T18:57:10.890Z,53.47
2023-03-04T18:59:59.285Z,53.71
2023-03-04T19:02:37.407Z,52.94
2023-03-04T19:05:09.961Z,52.43
2023-03-04T19:07:37.273Z,52.37
2023-03-04T19:10:08.990Z,51.76
2023-03-04T19:12:36.150Z,51.62
2023-03-04T19:15:12.830Z,51.56
2023-03-04T19:17:47.566Z,51.72
2023-03-04T19:20:16.502Z,51.56
2023-03-04T19:22:45.950Z,51.45
2023-03-04T19:25:15.072Z,51.05
2023-03-04T19:27:42.188Z,51.14
2023-03-04T19:30:11.563Z,51.08
2023-03-04T19:32:38.592Z,50.85
2023-03-04T19:35:06.370Z,50.98
2023-03-04T19:37:33.409Z,50.95
2023-03-04T19:40:00.833Z,51.02
2023-03-04T19:42:27.929Z,51.62
2023-03-04T19:44:55.496Z,51.35
2023-03-04T19:47:22.554Z,51.25
2023-03-04T19:49:49.875Z,51.11
2023-03-04T19:52:16.888Z,51.34
2023-03-04T19:54:44.178Z,51.76
2023-03-04T19:57:11.127Z,51.36
2023-03-04T19:59:38.513Z,51.19
2023-03-04T20:02:05.724Z,51.79
2023-03-04T20:04:33.702Z,51.46
2023-03-04T20:07:07.884Z,51.80
2023-03-04T20:09:38.233Z,51.44
2023-03-04T20:12:07.012Z,51.38
2023-03-04T20:14:37.552Z,51.86
2023-03-04T20:17:07.866Z,51.63
2023-03-04T20:19:37.604Z,51.84
2023-03-04T20:22:05.833Z,51.87
2023-03-04T20:24:33.524Z,51.58
2023-03-04T20:27:00.556Z,51.34
2023-03-04T20:29:29.019Z,51.50
2023-03-04T20:31:56.592Z,51.80
2023-03-04T20:34:25.558Z,51.68
2023-03-04T20:36:52.986Z,51.96
2023-03-04T20:39:29.241Z,51.74
2023-03-04T20:42:01.245Z,51.86
2023-03-04T20:44:28.874Z,52.17
2023-03-04T20:46:56.828Z,52.59
2023-03-04T20:49:27.459Z,52.56
2023-03-04T20:52:00.709Z,52.56
2023-03-04T20:54:28.148Z,53.42
2023-03-04T20:57:02.465Z,54.14
2023-03-04T20:59:30.911Z,54.75
2023-03-04T21:02:08.235Z,54.69
2023-03-04T21:04:35.976Z,55.19
2023-03-04T21:07:04.172Z,55.90
2023-03-04T21:09:32.288Z,56.31
2023-03-04T21:12:01.078Z,57.03
2023-03-04T21:14:31.233Z,56.99
2023-03-04T21:17:00.848Z,56.63
2023-03-04T21:19:31.524Z,58.26
2023-03-04T21:22:00.113Z,58.15
2023-03-04T21:24:31.248Z,58.72
2023-03-04T21:26:58.907Z,58.70
2023-03-04T21:29:28.232Z,58.55
2023-03-04T21:32:09.800Z,58.85
2023-03-04T21:34:48.494Z,59.34
2023-03-04T21:37:16.582Z,58.98
2023-03-04T21:42:10.856Z,58.82
2023-03-04T21:44:48.955Z,58.89
2023-03-04T21:47:18.310Z,58.54
2023-03-04T21:49:46.021Z,58.40
2023-03-04T21:52:17.625Z,58.27
2023-03-04T21:54:45.044Z,58.29
2023-03-04T21:57:14.290Z,59.02
2023-03-04T21:59:42.110Z,59.13
2023-03-04T22:02:20.390Z,59.32
2023-03-04T22:04:48.925Z,59.51
2023-03-04T22:07:17.640Z,59.87
2023-03-04T22:09:46.364Z,60.02
2023-03-04T22:12:16.410Z,60.25
2023-03-04T22:14:45.147Z,60.57
2023-03-04T22:17:12.493Z,60.91
2023-03-04T22:19:40.581Z,61.15
2023-03-04T22:22:09.113Z,61.63
2023-03-04T22:24:36.509Z,61.76
2023-03-04T22:27:03.681Z,62.43
2023-03-04T22:29:31.118Z,62.36
2023-03-04T22:32:00.341Z,62.56
2023-03-04T22:34:28.170Z,63.35
2023-03-04T22:36:55.186Z,64.22
2023-03-04T22:39:23.384Z,64.29
2023-03-04T22:41:51.678Z,64.42
2023-03-04T22:44:19.112Z,64.97
2023-03-04T22:46:46.629Z,65.12
2023-03-04T22:49:14.783Z,65.19
2023-03-04T22:51:45.544Z,65.56
2023-03-04T22:54:18.454Z,65.66
2023-03-04T22:56:45.989Z,66.30
2023-03-04T22:59:13.760Z,66.01
2023-03-04T23:01:41.313Z,66.38
2023-03-04T23:04:08.702Z,66.70
2023-03-04T23:06:37.963Z,66.92
2023-03-04T23:09:06.972Z,66.54
2023-03-04T23:11:39.176Z,66.34
2023-03-04T23:14:09.825Z,66.58
2023-03-04T23:16:42.407Z,66.90
2023-03-04T23:19:16.430Z,66.71
2023-03-04T23:21:44.779Z,66.62
2023-03-04T23:24:26.720Z,66.54
2023-03-04T23:26:54.135Z,66.39
2023-03-04T23:29:21.910Z,67.52
2023-03-04T23:31:50.483Z,67.64
2023-03-04T23:34:18.173Z,67.49
2023-03-04T23:36:47.206Z,67.91
2023-03-04T23:39:14.641Z,67.46
2023-03-04T23:41:42.265Z,67.51
2023-03-04T23:44:11.610Z,67.67
2023-03-04T23:46:39.545Z,67.93
2023-03-04T23:49:08.289Z,67.73
2023-03-04T23:51:35.597Z,67.66
2023-03-04T23:54:03.166Z,67.73
2023-03-04T23:56:31.354Z,67.52
2023-03-04T23:58:59.972Z,67.57
